createdAt,value
2022-11-16T00:02:18.501Z,99647.78
2022-11-16T00:04:47.676Z,99638.72
2022-11-16T00:07:17.277Z,99638.94
2022-11-16T00:09:48.353Z,99643.81
2022-11-16T00:12:18.790Z,99641.19
2022-11-16T00:14:48.061Z,99633.13
2022-11-16T00:17:17.739Z,99634.44
2022-11-16T00:19:49.543Z,99624.19
2022-11-16T00:22:18.760Z,99641.06
2022-11-16T00:24:49.743Z,99633.13
2022-11-16T00:27:19.480Z,99617.47
2022-11-16T00:29:49.033Z,99631.34
2022-11-16T00:32:17.995Z,99626.00
2022-11-16T00:34:48.009Z,99634.97
2022-11-16T00:37:16.944Z,99629.97
2022-11-16T00:39:49.463Z,99639.50
2022-11-16T00:42:18.919Z,99626.00
2022-11-16T00:44:50.911Z,99620.53
2022-11-16T00:47:19.953Z,99635.19
2022-11-16T00:49:48.965Z,99637.19
2022-11-16T00:52:17.899Z,99630.97
2022-11-16T00:54:46.555Z,99633.66
2022-11-16T00:57:17.318Z,99641.47
2022-11-16T00:59:49.978Z,99635.81
2022-11-16T01:02:19.447Z,99638.16
2022-11-16T01:04:49.005Z,99622.84
2022-11-16T01:07:21.012Z,99623.28
2022-11-16T01:09:51.027Z,99630.53
2022-11-16T01:12:21.296Z,99639.78
2022-11-16T01:14:50.979Z,99616.25
2022-11-16T01:17:20.985Z,99611.19
2022-11-16T01:19:50.002Z,99625.38
2022-11-16T01:22:18.971Z,99623.03
2022-11-16T01:24:48.619Z,99624.94
2022-11-16T01:27:47.772Z,99631.63
2022-11-16T01:30:24.851Z,99607.50
2022-11-16T01:33:09.983Z,99611.88
2022-11-16T01:35:39.695Z,99602.81
2022-11-16T01:38:09.506Z,99622.16
2022-11-16T01:40:39.968Z,99487.16
2022-11-16T01:43:18.272Z,99619.91
2022-11-16T01:45:49.496Z,99605.06
2022-11-16T01:48:32.876Z,99618.84
2022-11-16T01:51:02.992Z,99613.88
2022-11-16T01:53:33.694Z,99618.81
2022-11-16T01:56:03.510Z,99611.03
2022-11-16T01:58:48.933Z,99607.19
2022-11-16T02:01:29.513Z,99472.34
2022-11-16T02:04:02.158Z,99601.72
2022-11-16T02:06:50.311Z,99608.59
2022-11-16T02:09:54.421Z,99608.38
2022-11-16T02:12:52.694Z,99594.50
2022-11-16T02:15:32.751Z,99613.72
2022-11-16T02:18:23.837Z,99609.63
2022-11-16T02:21:09.363Z,99615.34
2022-11-16T02:24:03.190Z,99601.00
2022-11-16T02:26:45.644Z,99617.34
2022-11-16T02:29:24.530Z,99619.06
2022-11-16T02:32:02.954Z,99605.66
2022-11-16T02:34:38.970Z,99631.28
2022-11-16T02:37:12.290Z,99631.41
2022-11-16T02:39:47.766Z,99617.84
2022-11-16T02:42:22.986Z,99630.47
2022-11-16T02:44:58.054Z,99622.41
2022-11-16T02:47:32.121Z,99598.44
2022-11-16T02:50:06.278Z,99605.38
2022-11-16T02:52:39.906Z,99616.13
2022-11-16T02:55:14.447Z,99610.38
2022-11-16T02:57:51.932Z,99608.81
2022-11-16T03:00:26.875Z,99618.25
2022-11-16T03:03:11.381Z,99613.50
2022-11-16T03:05:46.325Z,99589.16
2022-11-16T03:08:23.262Z,99606.69
2022-11-16T03:11:14.008Z,99617.56
2022-11-16T03:13:45.372Z,99610.41
2022-11-16T03:16:20.340Z,99590.00
2022-11-16T03:18:53.363Z,99628.44
2022-11-16T03:21:29.345Z,99509.88
2022-11-16T03:23:59.028Z,99620.94
2022-11-16T03:26:35.512Z,99467.88
2022-11-16T03:29:15.336Z,99612.50
2022-11-16T03:31:50.418Z,99608.44
2022-11-16T03:34:28.321Z,99626.66
2022-11-16T03:37:00.281Z,99620.03
2022-11-16T03:39:34.422Z,99621.41
2022-11-16T03:42:10.548Z,99640.16
2022-11-16T03:44:46.831Z,99620.06
2022-11-16T03:47:17.540Z,99620.66
2022-11-16T03:49:49.019Z,99582.63
2022-11-16T03:52:21.196Z,99618.25
2022-11-16T03:54:51.988Z,99613.38
2022-11-16T03:57:27.221Z,99632.03
2022-11-16T04:00:01.042Z,99636.72
2022-11-16T04:02:35.439Z,99615.88
2022-11-16T04:05:22.811Z,99627.56
2022-11-16T04:08:09.840Z,99611.28
2022-11-16T04:10:56.697Z,99482.50
2022-11-16T04:13:47.091Z,99639.41
2022-11-16T04:16:33.450Z,99635.56
2022-11-16T04:19:22.208Z,99641.69
2022-11-16T04:22:15.221Z,99641.38
2022-11-16T04:24:48.270Z,99638.88
2022-11-16T04:27:44.712Z,99642.50
2022-11-16T04:30:14.681Z,99641.19
2022-11-16T04:33:04.906Z,99655.25
2022-11-16T04:35:54.879Z,99664.81
2022-11-16T04:38:24.160Z,99651.16
2022-11-16T04:40:54.034Z,99650.34
2022-11-16T04:43:23.029Z,99644.91
2022-11-16T04:46:11.708Z,99657.31
2022-11-16T04:48:42.015Z,99662.72
2022-11-16T04:51:13.416Z,99660.84
2022-11-16T04:53:42.999Z,99658.03
2022-11-16T04:56:20.036Z,99658.34
2022-11-16T04:58:52.132Z,99518.56
2022-11-16T05:01:41.787Z,99632.50
2022-11-16T05:04:11.256Z,99651.91
2022-11-16T05:06:42.379Z,99645.00
2022-11-16T05:09:12.052Z,99640.25
2022-11-16T05:11:41.098Z,99639.50
2022-11-16T05:14:11.522Z,99645.13
2022-11-16T05:16:43.282Z,99657.94
2022-11-16T05:19:30.057Z,99636.69
2022-11-16T05:22:05.894Z,99658.94
2022-11-16T05:24:36.999Z,99663.16
2022-11-16T05:27:09.144Z,99667.81
2022-11-16T05:29:43.769Z,99653.09
2022-11-16T05:32:15.487Z,99671.88
2022-11-16T05:34:44.383Z,99676.88
2022-11-16T05:37:15.047Z,99679.81
2022-11-16T05:39:48.074Z,99674.81
2022-11-16T05:42:17.483Z,99682.78
2022-11-16T05:44:46.394Z,99683.41
2022-11-16T05:47:18.476Z,99684.88
2022-11-16T05:49:49.674Z,99654.72
2022-11-16T05:52:19.998Z,99683.69
2022-11-16T05:54:48.900Z,99678.44
2022-11-16T05:57:18.161Z,99646.00
2022-11-16T05:59:46.931Z,99671.31
2022-11-16T06:02:16.553Z,99687.28
2022-11-16T06:04:45.283Z,99683.13
2022-11-16T06:07:13.970Z,99681.13
2022-11-16T06:09:44.818Z,99679.41
2022-11-16T06:12:19.985Z,99681.84
2022-11-16T06:14:52.757Z,99688.72
2022-11-16T06:17:24.317Z,99687.53
2022-11-16T06:19:53.089Z,99689.78
2022-11-16T06:22:21.779Z,99692.50
2022-11-16T06:24:52.253Z,99686.25
2022-11-16T06:27:21.683Z,99690.09
2022-11-16T06:29:50.393Z,99693.09
2022-11-16T06:32:19.320Z,99698.50
2022-11-16T06:34:48.257Z,99700.06
2022-11-16T06:37:17.349Z,99695.66
2022-11-16T06:39:46.213Z,99698.69
2022-11-16T06:42:16.644Z,99704.78
2022-11-16T06:44:45.674Z,99540.09
2022-11-16T06:47:20.254Z,99691.41
2022-11-16T06:49:49.075Z,99694.09
2022-11-16T06:52:23.222Z,99707.56
2022-11-16T06:54:52.387Z,99715.59
2022-11-16T06:57:22.698Z,99699.16
2022-11-16T06:59:52.235Z,99708.63
2022-11-16T07:02:22.878Z,99708.81
2022-11-16T07:04:52.172Z,99718.19
2022-11-16T07:07:21.128Z,99729.16
2022-11-16T07:09:50.059Z,99718.69
2022-11-16T07:12:18.885Z,99723.28
2022-11-16T07:14:49.351Z,99728.38
2022-11-16T07:17:20.930Z,99726.06
2022-11-16T07:19:50.243Z,99734.13
2022-11-16T07:22:19.020Z,99727.53
2022-11-16T07:24:52.275Z,99732.44
2022-11-16T07:27:23.015Z,99734.09
2022-11-16T07:29:54.888Z,99734.66
2022-11-16T07:32:43.823Z,99736.50
2022-11-16T07:35:17.831Z,99733.31
2022-11-16T07:37:47.014Z,99720.91
2022-11-16T07:40:17.628Z,99751.47
2022-11-16T07:42:47.408Z,99758.84
2022-11-16T07:45:37.867Z,99752.28
2022-11-16T07:48:09.872Z,99757.19
2022-11-16T07:51:03.051Z,99769.88
2022-11-16T07:53:34.484Z,99748.59
2022-11-16T07:56:03.749Z,99778.72
2022-11-16T07:58:38.288Z,99777.22
2022-11-16T08:01:16.696Z,99777.53
2022-11-16T08:03:48.207Z,99783.69
2022-11-16T08:06:20.416Z,99782.41
2022-11-16T08:08:53.696Z,99784.69
2022-11-16T08:11:55.127Z,99782.09
2022-11-16T08:14:26.528Z,99569.59
2022-11-16T08:16:59.582Z,99747.75
2022-11-16T08:19:28.961Z,99425.13
2022-11-16T08:21:58.240Z,99788.09
2022-11-16T08:24:31.456Z,99782.59
2022-11-16T08:27:01.104Z,99782.84
2022-11-16T08:29:30.855Z,99778.94
2022-11-16T08:32:04.507Z,99782.50
2022-11-16T08:34:35.812Z,99785.41
2022-11-16T08:37:06.681Z,99804.72
2022-11-16T08:39:45.863Z,99785.75
2022-11-16T08:42:17.616Z,99787.72
2022-11-16T08:44:49.782Z,99779.56
2022-11-16T08:47:23.030Z,99785.94
2022-11-16T08:50:00.375Z,99790.75
2022-11-16T08:52:34.593Z,99786.28
2022-11-16T08:55:06.179Z,99788.53
2022-11-16T08:57:35.309Z,99787.16
2022-11-16T09:00:09.615Z,99786.91
2022-11-16T09:02:42.234Z,99789.81
2022-11-16T09:05:12.191Z,99781.22
2022-11-16T09:07:43.491Z,99790.59
2022-11-16T09:10:12.790Z,99759.56
2022-11-16T09:12:41.855Z,99795.31
2022-11-16T09:15:11.721Z,99780.75
2022-11-16T09:17:40.456Z,99794.75
2022-11-16T09:20:11.049Z,99796.44
2022-11-16T09:22:39.887Z,99791.72
2022-11-16T09:25:11.180Z,99793.28
2022-11-16T09:27:40.221Z,99789.09
2022-11-16T09:30:11.777Z,99794.03
2022-11-16T09:32:40.588Z,99793.00
2022-11-16T09:35:11.465Z,99784.44
2022-11-16T09:37:40.162Z,99793.72
2022-11-16T09:40:12.517Z,99778.78
2022-11-16T09:42:58.647Z,99797.34
2022-11-16T09:45:37.288Z,99794.34
2022-11-16T09:48:12.130Z,99795.97
2022-11-16T09:50:47.482Z,99783.75
2022-11-16T09:53:33.891Z,99803.97
2022-11-16T09:56:06.046Z,99794.22
2022-11-16T09:58:44.788Z,99809.78
2022-11-16T10:01:23.594Z,99802.50
2022-11-16T10:03:58.774Z,99784.22
2022-11-16T10:06:38.779Z,99791.81
2022-11-16T10:09:11.149Z,99802.22
2022-11-16T10:12:05.278Z,99789.94
2022-11-16T10:15:01.712Z,99791.41
2022-11-16T10:17:42.708Z,99796.38
2022-11-16T10:20:37.792Z,99799.34
2022-11-16T10:23:17.681Z,99785.91
2022-11-16T10:25:50.881Z,99795.38
2022-11-16T10:28:53.061Z,99788.66
2022-11-16T10:31:33.503Z,99793.84
2022-11-16T10:34:04.713Z,99791.31
2022-11-16T10:36:37.151Z,99795.44
2022-11-16T10:39:14.281Z,99796.38
2022-11-16T10:41:49.828Z,99797.28
2022-11-16T10:44:28.393Z,99797.13
2022-11-16T10:47:04.095Z,99792.19
2022-11-16T10:49:41.794Z,99698.25
2022-11-16T10:52:11.741Z,99767.28
2022-11-16T10:54:44.472Z,99778.50
2022-11-16T10:57:14.953Z,99788.44
2022-11-16T10:59:45.545Z,99776.72
2022-11-16T11:02:32.160Z,99788.44
2022-11-16T11:05:07.034Z,99787.25
2022-11-16T11:07:39.947Z,99784.22
2022-11-16T11:10:30.053Z,99770.91
2022-11-16T11:13:26.518Z,99771.03
2022-11-16T11:16:14.972Z,99768.41
2022-11-16T11:18:51.485Z,99763.25
2022-11-16T11:21:24.301Z,99750.88
2022-11-16T11:24:10.629Z,99766.66
2022-11-16T11:26:52.655Z,99771.38
2022-11-16T11:29:26.911Z,99777.44
2022-11-16T11:31:58.734Z,99767.09
2022-11-16T11:34:31.001Z,99767.72
2022-11-16T11:37:03.319Z,99755.84
2022-11-16T11:39:35.250Z,99768.53
2022-11-16T11:42:20.725Z,99780.56
2022-11-16T11:44:56.041Z,99780.59
2022-11-16T11:47:57.296Z,99791.88
2022-11-16T11:50:45.713Z,99775.72
2022-11-16T11:53:25.487Z,99785.31
2022-11-16T11:55:57.901Z,99785.94
2022-11-16T11:58:32.317Z,99782.50
2022-11-16T12:01:26.376Z,99783.63
2022-11-16T12:04:13.024Z,99777.78
2022-11-16T12:06:51.008Z,99767.41
2022-11-16T12:09:33.540Z,99761.94
2022-11-16T12:12:17.890Z,99762.97
2022-11-16T12:15:09.135Z,99753.59
2022-11-16T12:17:51.181Z,99743.75
2022-11-16T12:20:30.034Z,99735.53
2022-11-16T12:23:17.254Z,99738.22
2022-11-16T12:25:56.132Z,99730.03
2022-11-16T12:28:49.848Z,99592.31
2022-11-16T12:31:56.941Z,99733.63
2022-11-16T12:34:40.682Z,99530.91
2022-11-16T12:37:16.952Z,99738.13
2022-11-16T12:39:52.245Z,99714.56
2022-11-16T12:42:35.278Z,99728.41
2022-11-16T12:45:27.634Z,99734.22
2022-11-16T12:48:31.385Z,99737.38
2022-11-16T12:51:09.745Z,99732.69
2022-11-16T12:54:04.360Z,99742.75
2022-11-16T12:56:48.720Z,99742.00
2022-11-16T12:59:32.117Z,99736.72
2022-11-16T13:02:13.852Z,99729.53
2022-11-16T13:04:47.330Z,99715.47
2022-11-16T13:07:26.131Z,99728.41
2022-11-16T13:10:03.998Z,99719.84
2022-11-16T13:12:35.128Z,99733.19
2022-11-16T13:15:04.560Z,99690.44
2022-11-16T13:17:39.107Z,99728.28
2022-11-16T13:20:29.003Z,99725.06
2022-11-16T13:23:03.784Z,99724.53
2022-11-16T13:25:37.653Z,99711.59
2022-11-16T13:28:17.317Z,99689.13
2022-11-16T13:30:57.432Z,99721.31
2022-11-16T13:33:40.680Z,99723.81
2022-11-16T13:36:45.804Z,99722.34
2022-11-16T13:39:22.349Z,99718.88
2022-11-16T13:42:06.152Z,99718.88
2022-11-16T13:44:36.191Z,99705.22
2022-11-16T13:47:08.085Z,99674.47
2022-11-16T13:49:40.929Z,99692.31
2022-11-16T13:52:54.092Z,99705.97
2022-11-16T13:55:15.791Z,99710.25
2022-11-16T13:57:52.134Z,99710.44
2022-11-16T14:00:26.554Z,99698.38
2022-11-16T14:03:27.695Z,99706.19
2022-11-16T14:05:56.792Z,99705.34
2022-11-16T14:08:53.434Z,99699.16
2022-11-16T14:11:33.859Z,99687.31
2022-11-16T14:14:05.934Z,99688.34
2022-11-16T14:16:46.556Z,99681.88
2022-11-16T14:19:55.736Z,99675.72
2022-11-16T14:22:45.639Z,99675.25
2022-11-16T14:25:33.474Z,99673.53
2022-11-16T14:28:16.094Z,99676.91
2022-11-16T14:30:52.520Z,99660.22
2022-11-16T14:33:31.284Z,99662.75
2022-11-16T14:36:08.477Z,99661.25
2022-11-16T14:38:39.824Z,99650.88
2022-11-16T14:41:20.888Z,99669.41
2022-11-16T14:43:52.954Z,99663.25
2022-11-16T14:46:26.048Z,99650.97
2022-11-16T14:48:57.788Z,99653.47
2022-11-16T14:51:31.240Z,99645.44
2022-11-16T14:54:02.974Z,99631.88
2022-11-16T14:56:33.067Z,99638.28
2022-11-16T14:59:03.246Z,99637.28
2022-11-16T15:01:36.966Z,99632.41
2022-11-16T15:04:12.205Z,99634.56
2022-11-16T15:06:44.932Z,99635.31
2022-11-16T15:09:20.821Z,99626.19
2022-11-16T15:12:09.748Z,99640.38
2022-11-16T15:14:47.688Z,99609.97
2022-11-16T15:17:19.046Z,99615.13
2022-11-16T15:19:56.094Z,99620.69
2022-11-16T15:22:30.634Z,99603.78
2022-11-16T15:25:03.138Z,99596.41
2022-11-16T15:27:38.657Z,99596.94
2022-11-16T15:30:16.411Z,99595.78
2022-11-16T15:32:48.050Z,99573.59
2022-11-16T15:35:21.009Z,99435.19
2022-11-16T15:37:50.599Z,99606.72
2022-11-16T15:40:20.210Z,99577.13
2022-11-16T15:42:51.544Z,99560.78
2022-11-16T15:45:23.488Z,99552.88
2022-11-16T15:47:53.968Z,99554.84
2022-11-16T15:50:24.761Z,99536.09
2022-11-16T15:52:59.701Z,99536.53
2022-11-16T15:55:38.712Z,99541.84
2022-11-16T15:58:16.198Z,99555.66
2022-11-16T16:00:48.934Z,99567.53
2022-11-16T16:03:21.970Z,99554.13
2022-11-16T16:05:51.849Z,99558.00
2022-11-16T16:08:27.280Z,99525.09
2022-11-16T16:11:00.874Z,99548.31
2022-11-16T16:13:33.046Z,99539.53
2022-11-16T16:16:26.099Z,99522.34
2022-11-16T16:18:58.284Z,99530.50
2022-11-16T16:21:30.368Z,99532.88
2022-11-16T16:23:59.220Z,99546.06
2022-11-16T16:26:32.074Z,99537.41
2022-11-16T16:29:02.162Z,99543.66
2022-11-16T16:31:30.886Z,99544.09
2022-11-16T16:34:11.858Z,99550.13
2022-11-16T16:36:40.594Z,99554.91
2022-11-16T16:39:12.306Z,99543.59
2022-11-16T16:41:41.165Z,99526.22
2022-11-16T16:44:16.602Z,99530.25
2022-11-16T16:46:47.707Z,99518.72
2022-11-16T16:49:17.274Z,99321.09
2022-11-16T16:51:46.174Z,99505.84
2022-11-16T16:54:17.111Z,99517.88
2022-11-16T16:56:46.342Z,99514.44
2022-11-16T16:59:17.135Z,99515.47
2022-11-16T17:01:45.828Z,99516.41
2022-11-16T17:04:15.249Z,99506.91
2022-11-16T17:06:46.572Z,99474.28
2022-11-16T17:09:19.356Z,99507.25
2022-11-16T17:11:51.544Z,99510.41
2022-11-16T17:14:24.436Z,99485.06
2022-11-16T17:16:53.378Z,99508.66
2022-11-16T17:19:22.291Z,99508.38
2022-11-16T17:21:52.294Z,99498.31
2022-11-16T17:24:23.488Z,99493.06
2022-11-16T17:26:53.408Z,99477.69
2022-11-16T17:29:24.989Z,99488.63
2022-11-16T17:31:53.735Z,99473.25
2022-11-16T17:34:23.579Z,99448.66
2022-11-16T17:36:53.323Z,99468.84
2022-11-16T17:39:24.901Z,99470.53
2022-11-16T17:41:54.093Z,99459.72
2022-11-16T17:44:24.673Z,99472.19
2022-11-16T17:47:13.620Z,99469.47
2022-11-16T17:49:42.476Z,99476.25
2022-11-16T17:52:12.291Z,99465.44
2022-11-16T17:54:41.063Z,99436.84
2022-11-16T17:57:14.383Z,99443.41
2022-11-16T17:59:44.501Z,99471.38
2022-11-16T18:02:13.981Z,99468.88
2022-11-16T18:04:48.145Z,99464.47
2022-11-16T18:07:20.470Z,99468.66
2022-11-16T18:09:49.194Z,99474.25
2022-11-16T18:12:18.266Z,99472.31
2022-11-16T18:15:13.526Z,99471.56
2022-11-16T18:17:37.641Z,99475.28
2022-11-16T18:20:08.351Z,99465.81
2022-11-16T18:22:37.111Z,99458.97
2022-11-16T18:25:07.391Z,99472.75
2022-11-16T18:27:36.119Z,99465.75
2022-11-16T18:30:08.117Z,99465.63
2022-11-16T18:32:37.530Z,99447.41
2022-11-16T18:35:09.972Z,99459.84
2022-11-16T18:37:39.109Z,99454.13
2022-11-16T18:40:09.857Z,99444.44
2022-11-16T18:42:38.755Z,99454.75
2022-11-16T18:45:10.793Z,99443.09
2022-11-16T18:47:39.746Z,99438.19
2022-11-16T18:50:19.040Z,99435.09
2022-11-16T18:52:50.429Z,99433.13
2022-11-16T18:55:19.436Z,99420.63
2022-11-16T18:57:48.385Z,99405.97
2022-11-16T19:00:20.343Z,99417.09
2022-11-16T19:02:49.089Z,99383.28
2022-11-16T19:05:20.352Z,99392.34
2022-11-16T19:07:49.132Z,99390.06
2022-11-16T19:10:18.345Z,99389.97
2022-11-16T19:12:47.009Z,99365.63
2022-11-16T19:15:16.333Z,99368.22
2022-11-16T19:18:06.783Z,99361.38
2022-11-16T19:20:38.579Z,99340.88
2022-11-16T19:23:07.554Z,99319.88
2022-11-16T19:25:36.263Z,99204.66
2022-11-16T19:28:05.616Z,99332.16
2022-11-16T19:30:34.320Z,99325.91
2022-11-16T19:33:04.512Z,99309.16
2022-11-16T19:35:35.399Z,99305.94
2022-11-16T19:38:04.527Z,99296.97
2022-11-16T19:40:33.258Z,99302.94
2022-11-16T19:43:02.288Z,99285.38
2022-11-16T19:45:35.477Z,99286.00
2022-11-16T19:48:07.085Z,99267.41
2022-11-16T19:50:39.123Z,99230.94
2022-11-16T19:53:08.333Z,99242.69
2022-11-16T19:55:37.167Z,99253.13
2022-11-16T19:58:07.588Z,99240.00
2022-11-16T20:00:36.385Z,99227.88
2022-11-16T20:03:06.633Z,99240.56
2022-11-16T20:05:35.341Z,99231.53
2022-11-16T20:08:04.075Z,99247.41
2022-11-16T20:10:32.757Z,99242.59
2022-11-16T20:13:01.406Z,99232.66
2022-11-16T20:15:32.597Z,99221.75
2022-11-16T20:18:01.825Z,99223.69
2022-11-16T20:20:33.245Z,99205.81
2022-11-16T20:23:02.219Z,99191.47
2022-11-16T20:25:31.179Z,99172.75
2022-11-16T20:27:59.886Z,99211.53
2022-11-16T20:30:28.803Z,99200.16
2022-11-16T20:32:57.459Z,99206.00
2022-11-16T20:35:26.468Z,99168.59
2022-11-16T20:37:58.482Z,99195.56
2022-11-16T20:40:27.335Z,99197.44
2022-11-16T20:42:59.167Z,99179.22
2022-11-16T20:45:28.203Z,99185.66
2022-11-16T20:48:00.151Z,99173.78
2022-11-16T20:50:29.416Z,99162.75
2022-11-16T20:53:00.285Z,99166.38
2022-11-16T20:55:29.296Z,99153.59
2022-11-16T20:57:57.975Z,99147.31
2022-11-16T21:00:26.660Z,99134.50
2022-11-16T21:02:55.505Z,99134.94
2022-11-16T21:05:24.178Z,99084.13
2022-11-16T21:07:53.225Z,99092.59
2022-11-16T21:10:23.268Z,99120.50
2022-11-16T21:13:09.926Z,99116.69
2022-11-16T21:15:40.895Z,99111.16
2022-11-16T21:18:09.632Z,99109.78
2022-11-16T21:20:38.222Z,99103.22
2022-11-16T21:23:07.217Z,99104.84
2022-11-16T21:25:37.576Z,99092.59
2022-11-16T21:28:06.231Z,99087.31
2022-11-16T21:30:34.929Z,99076.00
2022-11-16T21:33:06.329Z,99080.22
2022-11-16T21:35:35.052Z,99067.41
2022-11-16T21:38:03.708Z,99062.44
2022-11-16T21:40:33.215Z,99051.72
2022-11-16T21:43:03.228Z,99048.50
2022-11-16T21:45:35.160Z,99035.03
2022-11-16T21:48:03.931Z,99023.47
2022-11-16T21:50:32.651Z,99035.03
2022-11-16T21:53:01.553Z,99025.47
2022-11-16T21:55:30.209Z,99016.00
2022-11-16T21:57:59.413Z,99009.81
2022-11-16T22:00:29.445Z,99004.63
2022-11-16T22:02:58.083Z,99002.50
2022-11-16T22:05:44.421Z,98926.03
2022-11-16T22:08:16.193Z,98980.16
2022-11-16T22:10:50.651Z,98973.47
2022-11-16T22:13:20.294Z,98968.59
2022-11-16T22:15:50.283Z,98957.41
2022-11-16T22:18:19.139Z,98957.25
2022-11-16T22:20:50.607Z,98942.16
2022-11-16T22:23:49.944Z,98930.50
2022-11-16T22:26:19.850Z,98929.22
2022-11-16T22:28:53.322Z,98919.75
2022-11-16T22:31:23.812Z,98903.81
2022-11-16T22:33:53.866Z,98898.03
2022-11-16T22:36:23.002Z,98895.69
2022-11-16T22:38:52.603Z,98714.66
2022-11-16T22:41:21.777Z,98873.72
2022-11-16T22:43:52.129Z,98859.78
2022-11-16T22:46:24.112Z,98861.53
2022-11-16T22:48:53.522Z,98854.81
2022-11-16T22:51:24.471Z,98856.25
2022-11-16T22:53:55.201Z,98831.41
2022-11-16T22:56:24.471Z,98849.00
2022-11-16T22:58:56.792Z,98844.25
2022-11-16T23:01:27.394Z,98828.78
2022-11-16T23:03:59.431Z,98823.63
2022-11-16T23:06:29.878Z,98802.38
2022-11-16T23:08:59.493Z,98772.69
2022-11-16T23:11:46.820Z,98785.94
2022-11-16T23:14:35.405Z,98771.19
2022-11-16T23:17:07.234Z,98748.06
2022-11-16T23:19:54.631Z,98755.47
2022-11-16T23:22:43.437Z,98724.16
2022-11-16T23:25:31.045Z,98718.31
2022-11-16T23:28:05.310Z,98723.72
2022-11-16T23:30:37.694Z,98714.41
2022-11-16T23:33:11.257Z,98696.81
2022-11-16T23:35:40.736Z,98676.47
2022-11-16T23:38:10.275Z,98668.97
2022-11-16T23:40:42.337Z,98659.72
2022-11-16T23:43:29.465Z,98455.66
2022-11-16T23:45:58.670Z,98640.47
2022-11-16T23:48:29.050Z,98619.72
2022-11-16T23:50:59.473Z,98617.38
2022-11-16T23:53:30.531Z,98587.25
2022-11-16T23:56:05.947Z,98602.84
2022-11-16T23:58:35.303Z,98594.69
